Hunter Army Air Field Savannah US
ICAO: KSVN
IATA: SVN
Category: Medium
Scheduled Services: No

Elevation: 41 ft
TransAlt. 18000 ft.

Airport Communications:
SAVANNAH APP/DEP:118.4
ATIS:32.312
CTAF:133.55
GND:121.8
USCG SAVANNAH AIR:34.5
ARNG OPS:38.15
PMSV METRO:30.9
PTD:126.2
TWR:46.7

KSVN Zoom In..

If you have problems with the map follow the link
https://www.worldairports.se/pages/airport.php?
ICAO=KSVN

Runways:

(A) RW 10 length 11375 ft width 200 ft
---- / hdg 96

(B) RW 28 length 11375 ft width 200 ft
ILS 109.50 / hdg 276

Location; KSVN
Day. 12 / Time. 22.56 Zulu
* Altimeter: 30.34
* Temperature: 10° c. 50°f.
* Wind from: 040° Speed 09 kn.
Dewpoint: 02° c.
Visibility: 10 Statute Miles.
Clouds: Overcast 1800 ft.

KSVN 122256Z AUTO 04009KT 10SM OVC018 10/02 A3034 RMK AO2 SLP277 T00960024 $


Wind From 040°
Speed 09 kn.

 
 
jpsmedia worldairports.se 2019   terms of use